sensor_id;sensor_type;location;lat;lon;timestamp;pressure;altitude;pressure_sealevel;temperature;humidity
57600;BME280;43426;43.594;24.334;2024-01-15T00:02:21;100649.75;;;-6.40;100.00
57600;BME280;43426;43.594;24.334;2024-01-15T00:04:47;100629.34;;;-6.34;100.00
57600;BME280;43426;43.594;24.334;2024-01-15T00:07:12;100640.44;;;-6.27;100.00
57600;BME280;43426;43.594;24.334;2024-01-15T00:09:39;100636.34;;;-6.34;100.00
57600;BME280;43426;43.594;24.334;2024-01-15T00:12:05;100575.28;;;-6.58;100.00
57600;BME280;43426;43.594;24.334;2024-01-15T00:14:31;100631.69;;;-6.48;100.00
57600;BME280;43426;43.594;24.334;2024-01-15T00:16:56;100590.03;;;-6.76;100.00
57600;BME280;43426;43.594;24.334;2024-01-15T00:19:22;100614.78;;;-6.61;100.00
57600;BME280;43426;43.594;24.334;2024-01-15T00:21:49;100623.03;;;-6.50;100.00
57600;BME280;43426;43.594;24.334;2024-01-15T00:24:14;100608.88;;;-6.46;100.00
57600;BME280;43426;43.594;24.334;2024-01-15T00:26:40;100617.84;;;-6.52;100.00
57600;BME280;43426;43.594;24.334;2024-01-15T00:29:07;100601.25;;;-6.73;100.00
57600;BME280;43426;43.594;24.334;2024-01-15T00:31:33;100622.38;;;-6.55;100.00
57600;BME280;43426;43.594;24.334;2024-01-15T00:33:59;100621.06;;;-6.45;100.00
57600;BME280;43426;43.594;24.334;2024-01-15T00:36:24;100595.22;;;-6.54;100.00
57600;BME280;43426;43.594;24.334;2024-01-15T00:38:50;100562.06;;;-6.77;100.00
57600;BME280;43426;43.594;24.334;2024-01-15T00:41:16;100611.94;;;-6.57;100.00
57600;BME280;43426;43.594;24.334;2024-01-15T00:43:44;100609.31;;;-6.57;100.00
57600;BME280;43426;43.594;24.334;2024-01-15T00:46:09;100597.44;;;-6.65;100.00
57600;BME280;43426;43.594;24.334;2024-01-15T00:48:35;100598.94;;;-6.80;100.00
57600;BME280;43426;43.594;24.334;2024-01-15T00:51:00;100602.47;;;-6.81;100.00
57600;BME280;43426;43.594;24.334;2024-01-15T00:53:26;100606.69;;;-6.99;100.00
57600;BME280;43426;43.594;24.334;2024-01-15T00:55:51;100590.69;;;-7.14;100.00
57600;BME280;43426;43.594;24.334;2024-01-15T00:58:17;100590.06;;;-7.21;100.00
57600;BME280;43426;43.594;24.334;2024-01-15T01:00:42;100600.75;;;-7.03;100.00
57600;BME280;43426;43.594;24.334;2024-01-15T01:03:08;100576.75;;;-7.16;100.00
57600;BME280;43426;43.594;24.334;2024-01-15T01:05:34;100605.44;;;-6.89;100.00
57600;BME280;43426;43.594;24.334;2024-01-15T01:08:00;100602.25;;;-6.97;100.00
57600;BME280;43426;43.594;24.334;2024-01-15T01:10:26;100590.91;;;-6.98;100.00
57600;BME280;43426;43.594;24.334;2024-01-15T01:12:51;100586.06;;;-7.07;100.00
57600;BME280;43426;43.594;24.334;2024-01-15T01:15:17;100582.38;;;-7.03;100.00
57600;BME280;43426;43.594;24.334;2024-01-15T01:17:42;100576.13;;;-7.21;100.00
57600;BME280;43426;43.594;24.334;2024-01-15T01:20:08;100604.50;;;-7.10;100.00
57600;BME280;43426;43.594;24.334;2024-01-15T01:22:35;100591.66;;;-7.16;100.00
57600;BME280;43426;43.594;24.334;2024-01-15T01:25:01;100605.25;;;-7.07;100.00
57600;BME280;43426;43.594;24.334;2024-01-15T01:27:27;100601.66;;;-7.04;100.00
57600;BME280;43426;43.594;24.334;2024-01-15T01:29:52;100550.56;;;-7.38;100.00
57600;BME280;43426;43.594;24.334;2024-01-15T01:32:18;100599.59;;;-7.18;100.00
57600;BME280;43426;43.594;24.334;2024-01-15T01:34:44;100560.38;;;-7.21;100.00
57600;BME280;43426;43.594;24.334;2024-01-15T01:37:10;100569.84;;;-7.17;100.00
57600;BME280;43426;43.594;24.334;2024-01-15T01:39:38;100564.09;;;-7.05;100.00
57600;BME280;43426;43.594;24.334;2024-01-15T01:42:04;100554.94;;;-7.16;100.00
57600;BME280;43426;43.594;24.334;2024-01-15T01:44:30;100567.56;;;-7.04;100.00
57600;BME280;43426;43.594;24.334;2024-01-15T01:46:56;100571.97;;;-7.05;100.00
57600;BME280;43426;43.594;24.334;2024-01-15T01:49:23;100561.78;;;-7.12;100.00
57600;BME280;43426;43.594;24.334;2024-01-15T01:51:49;100568.84;;;-7.14;100.00
57600;BME280;43426;43.594;24.334;2024-01-15T01:54:14;100545.50;;;-7.21;100.00
57600;BME280;43426;43.594;24.334;2024-01-15T01:56:41;100556.47;;;-7.11;100.00
57600;BME280;43426;43.594;24.334;2024-01-15T01:59:07;100551.34;;;-7.14;100.00
57600;BME280;43426;43.594;24.334;2024-01-15T02:01:35;100549.22;;;-7.26;100.00
57600;BME280;43426;43.594;24.334;2024-01-15T02:04:01;100550.44;;;-7.13;100.00
57600;BME280;43426;43.594;24.334;2024-01-15T02:06:26;100550.19;;;-7.07;100.00
57600;BME280;43426;43.594;24.334;2024-01-15T02:08:52;100508.56;;;-7.37;100.00
57600;BME280;43426;43.594;24.334;2024-01-15T02:11:18;100550.31;;;-7.10;100.00
57600;BME280;43426;43.594;24.334;2024-01-15T02:13:44;100575.38;;;-7.25;100.00
57600;BME280;43426;43.594;24.334;2024-01-15T02:16:09;100534.75;;;-7.57;100.00
57600;BME280;43426;43.594;24.334;2024-01-15T02:18:42;100548.50;;;-7.52;100.00
57600;BME280;43426;43.594;24.334;2024-01-15T02:21:08;100557.16;;;-7.50;100.00
57600;BME280;43426;43.594;24.334;2024-01-15T02:23:34;100529.03;;;-7.68;100.00
57600;BME280;43426;43.594;24.334;2024-01-15T02:25:59;100518.47;;;-7.89;100.00
57600;BME280;43426;43.594;24.334;2024-01-15T02:28:25;100553.56;;;-7.70;100.00
57600;BME280;43426;43.594;24.334;2024-01-15T02:30:51;100518.81;;;-7.75;100.00
57600;BME280;43426;43.594;24.334;2024-01-15T02:33:17;100521.25;;;-7.70;100.00
57600;BME280;43426;43.594;24.334;2024-01-15T02:35:42;100516.06;;;-7.72;100.00
57600;BME280;43426;43.594;24.334;2024-01-15T02:38:08;100519.59;;;-7.73;100.00
57600;BME280;43426;43.594;24.334;2024-01-15T02:40:34;100520.63;;;-7.77;100.00
57600;BME280;43426;43.594;24.334;2024-01-15T02:43:00;100492.19;;;-7.86;100.00
57600;BME280;43426;43.594;24.334;2024-01-15T02:45:27;100505.78;;;-7.54;100.00
57600;BME280;43426;43.594;24.334;2024-01-15T02:47:53;100498.22;;;-7.62;100.00
57600;BME280;43426;43.594;24.334;2024-01-15T02:50:18;100495.81;;;-7.66;100.00
57600;BME280;43426;43.594;24.334;2024-01-15T02:52:44;100518.63;;;-7.48;100.00
57600;BME280;43426;43.594;24.334;2024-01-15T02:55:09;100507.13;;;-7.44;100.00
57600;BME280;43426;43.594;24.334;2024-01-15T02:57:35;100513.53;;;-7.51;100.00
57600;BME280;43426;43.594;24.334;2024-01-15T03:00:00;100512.66;;;-7.29;100.00
57600;BME280;43426;43.594;24.334;2024-01-15T03:02:26;100482.97;;;-7.52;100.00
57600;BME280;43426;43.594;24.334;2024-01-15T03:04:52;100487.59;;;-7.57;100.00
57600;BME280;43426;43.594;24.334;2024-01-15T03:07:17;100519.00;;;-7.35;100.00
57600;BME280;43426;43.594;24.334;2024-01-15T03:09:43;100493.09;;;-7.43;100.00
57600;BME280;43426;43.594;24.334;2024-01-15T03:12:09;100502.03;;;-7.26;100.00
57600;BME280;43426;43.594;24.334;2024-01-15T03:14:35;100478.28;;;-7.44;100.00
57600;BME280;43426;43.594;24.334;2024-01-15T03:17:01;100485.72;;;-7.33;100.00
57600;BME280;43426;43.594;24.334;2024-01-15T03:19:26;100481.06;;;-7.26;100.00
57600;BME280;43426;43.594;24.334;2024-01-15T03:21:52;100462.44;;;-7.41;100.00
57600;BME280;43426;43.594;24.334;2024-01-15T03:24:17;100474.63;;;-7.40;100.00
57600;BME280;43426;43.594;24.334;2024-01-15T03:26:43;100478.81;;;-7.36;100.00
57600;BME280;43426;43.594;24.334;2024-01-15T03:29:08;100468.00;;;-7.48;100.00
57600;BME280;43426;43.594;24.334;2024-01-15T03:31:34;100457.44;;;-7.47;100.00
57600;BME280;43426;43.594;24.334;2024-01-15T03:34:00;100465.38;;;-7.48;100.00
57600;BME280;43426;43.594;24.334;2024-01-15T03:36:25;100458.38;;;-7.48;100.00
57600;BME280;43426;43.594;24.334;2024-01-15T03:38:51;100487.72;;;-7.40;100.00
57600;BME280;43426;43.594;24.334;2024-01-15T03:41:16;100464.78;;;-7.55;100.00
57600;BME280;43426;43.594;24.334;2024-01-15T03:43:42;100467.28;;;-7.74;100.00
57600;BME280;43426;43.594;24.334;2024-01-15T03:46:07;100457.34;;;-7.88;100.00
57600;BME280;43426;43.594;24.334;2024-01-15T03:48:33;100472.34;;;-7.70;100.00
57600;BME280;43426;43.594;24.334;2024-01-15T03:50:58;100446.31;;;-7.74;100.00
57600;BME280;43426;43.594;24.334;2024-01-15T03:53:24;100445.47;;;-7.75;100.00
57600;BME280;43426;43.594;24.334;2024-01-15T03:55:50;100441.16;;;-7.76;100.00
57600;BME280;43426;43.594;24.334;2024-01-15T03:58:15;100464.59;;;-7.73;100.00
57600;BME280;43426;43.594;24.334;2024-01-15T04:00:42;100432.06;;;-7.89;100.00
57600;BME280;43426;43.594;24.334;2024-01-15T04:03:08;100452.78;;;-7.83;100.00
57600;BME280;43426;43.594;24.334;2024-01-15T04:05:36;100427.94;;;-7.95;100.00
57600;BME280;43426;43.594;24.334;2024-01-15T04:08:02;100445.28;;;-7.70;100.00
57600;BME280;43426;43.594;24.334;2024-01-15T04:10:27;100461.81;;;-7.68;100.00
57600;BME280;43426;43.594;24.334;2024-01-15T04:12:53;100438.31;;;-7.70;100.00
57600;BME280;43426;43.594;24.334;2024-01-15T04:15:18;100463.19;;;-7.81;100.00
57600;BME280;43426;43.594;24.334;2024-01-15T04:17:44;100466.09;;;-7.89;100.00
57600;BME280;43426;43.594;24.334;2024-01-15T04:20:10;100449.75;;;-7.94;100.00
57600;BME280;43426;43.594;24.334;2024-01-15T04:22:36;100442.72;;;-7.94;100.00
57600;BME280;43426;43.594;24.334;2024-01-15T04:25:02;100469.66;;;-7.90;100.00
57600;BME280;43426;43.594;24.334;2024-01-15T04:27:28;100472.44;;;-7.95;100.00
57600;BME280;43426;43.594;24.334;2024-01-15T04:29:54;100438.66;;;-8.01;100.00
57600;BME280;43426;43.594;24.334;2024-01-15T04:32:19;100445.47;;;-7.75;100.00
57600;BME280;43426;43.594;24.334;2024-01-15T04:34:45;100432.88;;;-7.87;100.00
57600;BME280;43426;43.594;24.334;2024-01-15T04:37:11;100441.50;;;-7.85;100.00
57600;BME280;43426;43.594;24.334;2024-01-15T04:39:36;100449.56;;;-7.67;100.00
57600;BME280;43426;43.594;24.334;2024-01-15T04:42:02;100434.16;;;-7.75;100.00
57600;BME280;43426;43.594;24.334;2024-01-15T04:44:28;100435.00;;;-7.75;100.00
57600;BME280;43426;43.594;24.334;2024-01-15T04:46:54;100410.84;;;-8.04;100.00
57600;BME280;43426;43.594;24.334;2024-01-15T04:49:19;100414.75;;;-8.14;100.00
57600;BME280;43426;43.594;24.334;2024-01-15T04:51:45;100427.22;;;-7.98;100.00
57600;BME280;43426;43.594;24.334;2024-01-15T04:54:10;100412.91;;;-8.12;100.00
57600;BME280;43426;43.594;24.334;2024-01-15T04:56:36;100406.81;;;-8.12;100.00
57600;BME280;43426;43.594;24.334;2024-01-15T04:59:02;100421.56;;;-8.10;100.00
57600;BME280;43426;43.594;24.334;2024-01-15T05:01:34;100423.25;;;-8.09;100.00
57600;BME280;43426;43.594;24.334;2024-01-15T05:03:59;100417.59;;;-7.98;100.00
57600;BME280;43426;43.594;24.334;2024-01-15T05:06:25;100389.75;;;-8.23;100.00
57600;BME280;43426;43.594;24.334;2024-01-15T05:08:50;100417.44;;;-7.93;100.00
57600;BME280;43426;43.594;24.334;2024-01-15T05:11:16;100388.91;;;-8.01;100.00
57600;BME280;43426;43.594;24.334;2024-01-15T05:13:41;100387.06;;;-7.77;100.00
57600;BME280;43426;43.594;24.334;2024-01-15T05:16:07;100374.47;;;-7.89;100.00
57600;BME280;43426;43.594;24.334;2024-01-15T05:18:32;100375.75;;;-7.99;100.00
57600;BME280;43426;43.594;24.334;2024-01-15T05:20:58;100397.13;;;-7.88;100.00
57600;BME280;43426;43.594;24.334;2024-01-15T05:23:23;100402.78;;;-7.99;100.00
57600;BME280;43426;43.594;24.334;2024-01-15T05:25:49;100400.91;;;-7.95;100.00
57600;BME280;43426;43.594;24.334;2024-01-15T05:28:14;100369.91;;;-8.06;100.00
57600;BME280;43426;43.594;24.334;2024-01-15T05:30:40;100402.56;;;-7.93;100.00
57600;BME280;43426;43.594;24.334;2024-01-15T05:33:05;100379.72;;;-8.11;100.00
57600;BME280;43426;43.594;24.334;2024-01-15T05:35:33;100392.63;;;-8.07;100.00
57600;BME280;43426;43.594;24.334;2024-01-15T05:37:58;100375.34;;;-8.11;100.00
57600;BME280;43426;43.594;24.334;2024-01-15T05:40:24;100368.81;;;-8.00;100.00
57600;BME280;43426;43.594;24.334;2024-01-15T05:42:50;100400.88;;;-7.73;100.00
57600;BME280;43426;43.594;24.334;2024-01-15T05:45:16;100389.03;;;-7.82;100.00
57600;BME280;43426;43.594;24.334;2024-01-15T05:47:41;100399.38;;;-7.79;100.00
57600;BME280;43426;43.594;24.334;2024-01-15T05:50:07;100377.88;;;-7.87;100.00
57600;BME280;43426;43.594;24.334;2024-01-15T05:52:33;100387.06;;;-7.77;100.00
57600;BME280;43426;43.594;24.334;2024-01-15T05:54:58;100373.44;;;-7.64;100.00
57600;BME280;43426;43.594;24.334;2024-01-15T05:57:24;100375.75;;;-7.57;100.00
57600;BME280;43426;43.594;24.334;2024-01-15T05:59:49;100377.91;;;-7.66;100.00
57600;BME280;43426;43.594;24.334;2024-01-15T06:02:15;100375.69;;;-7.55;100.00
57600;BME280;43426;43.594;24.334;2024-01-15T06:04:40;100339.94;;;-7.56;100.00
57600;BME280;43426;43.594;24.334;2024-01-15T06:07:06;100334.81;;;-7.59;100.00
57600;BME280;43426;43.594;24.334;2024-01-15T06:09:31;100348.97;;;-7.43;100.00
57600;BME280;43426;43.594;24.334;2024-01-15T06:11:57;100325.25;;;-7.60;100.00
57600;BME280;43426;43.594;24.334;2024-01-15T06:14:22;100330.38;;;-7.57;100.00
57600;BME280;43426;43.594;24.334;2024-01-15T06:16:48;100334.50;;;-7.51;100.00
57600;BME280;43426;43.594;24.334;2024-01-15T06:19:14;100357.56;;;-7.39;100.00
57600;BME280;43426;43.594;24.334;2024-01-15T06:21:39;100314.00;;;-7.62;100.00
57600;BME280;43426;43.594;24.334;2024-01-15T06:24:05;100348.97;;;-7.43;100.00
57600;BME280;43426;43.594;24.334;2024-01-15T06:26:31;100341.63;;;-7.34;100.00
57600;BME280;43426;43.594;24.334;2024-01-15T06:28:56;100340.66;;;-7.32;100.00
57600;BME280;43426;43.594;24.334;2024-01-15T06:31:22;100315.13;;;-7.47;100.00
57600;BME280;43426;43.594;24.334;2024-01-15T06:33:47;100342.91;;;-7.24;100.00
57600;BME280;43426;43.594;24.334;2024-01-15T06:36:14;100340.84;;;-6.97;100.00
57600;BME280;43426;43.594;24.334;2024-01-15T06:38:39;100339.72;;;-6.91;100.00
57600;BME280;43426;43.594;24.334;2024-01-15T06:41:05;100329.50;;;-6.78;100.00
57600;BME280;43426;43.594;24.334;2024-01-15T06:43:30;100324.56;;;-6.65;100.00
57600;BME280;43426;43.594;24.334;2024-01-15T06:45:56;100334.03;;;-6.44;100.00
57600;BME280;43426;43.594;24.334;2024-01-15T06:48:21;100332.13;;;-6.40;100.00
57600;BME280;43426;43.594;24.334;2024-01-15T06:50:47;100361.09;;;-6.05;100.00
57600;BME280;43426;43.594;24.334;2024-01-15T06:53:12;100333.75;;;-6.19;100.00
57600;BME280;43426;43.594;24.334;2024-01-15T06:55:38;100352.13;;;-6.01;100.00
57600;BME280;43426;43.594;24.334;2024-01-15T06:58:04;100380.13;;;-5.65;100.00
57600;BME280;43426;43.594;24.334;2024-01-15T07:00:30;100369.69;;;-5.49;100.00
57600;BME280;43426;43.594;24.334;2024-01-15T07:02:56;100357.31;;;-5.30;100.00
57600;BME280;43426;43.594;24.334;2024-01-15T07:05:23;100357.56;;;-5.01;100.00
57600;BME280;43426;43.594;24.334;2024-01-15T07:07:49;100357.38;;;-4.80;100.00
57600;BME280;43426;43.594;24.334;2024-01-15T07:10:15;100358.69;;;-4.55;100.00
57600;BME280;43426;43.594;24.334;2024-01-15T07:12:44;100341.84;;;-4.37;100.00
57600;BME280;43426;43.594;24.334;2024-01-15T07:15:10;100339.00;;;-4.02;100.00
57600;BME280;43426;43.594;24.334;2024-01-15T07:17:36;100344.13;;;-3.68;100.00
57600;BME280;43426;43.594;24.334;2024-01-15T07:20:07;100338.06;;;-3.40;99.11
57600;BME280;43426;43.594;24.334;2024-01-15T07:22:35;100327.91;;;-3.17;96.89
57600;BME280;43426;43.594;24.334;2024-01-15T07:25:01;100317.00;;;-3.11;95.96
57600;BME280;43426;43.594;24.334;2024-01-15T07:27:27;100329.34;;;-2.83;96.40
57600;BME280;43426;43.594;24.334;2024-01-15T07:29:52;100266.19;;;-2.86;95.52
57600;BME280;43426;43.594;24.334;2024-01-15T07:32:18;100282.88;;;-2.44;95.98
57600;BME280;43426;43.594;24.334;2024-01-15T07:34:43;100277.09;;;-2.36;96.15
57600;BME280;43426;43.594;24.334;2024-01-15T07:37:09;100297.03;;;-2.17;96.14
57600;BME280;43426;43.594;24.334;2024-01-15T07:39:34;100292.25;;;-2.25;95.32
57600;BME280;43426;43.594;24.334;2024-01-15T07:42:00;100332.06;;;-2.01;95.44
57600;BME280;43426;43.594;24.334;2024-01-15T07:44:26;100334.00;;;-2.03;96.63
57600;BME280;43426;43.594;24.334;2024-01-15T07:46:51;100310.53;;;-1.95;98.13
57600;BME280;43426;43.594;24.334;2024-01-15T07:49:17;100324.34;;;-1.64;99.40
57600;BME280;43426;43.594;24.334;2024-01-15T07:51:43;100301.09;;;-1.59;100.00
57600;BME280;43426;43.594;24.334;2024-01-15T07:54:11;100319.13;;;-1.25;100.00
57600;BME280;43426;43.594;24.334;2024-01-15T07:56:58;100323.97;;;-0.93;100.00
57600;BME280;43426;43.594;24.334;2024-01-15T07:59:24;100302.75;;;-0.80;100.00
57600;BME280;43426;43.594;24.334;2024-01-15T08:01:51;100293.59;;;-0.50;100.00
57600;BME280;43426;43.594;24.334;2024-01-15T08:04:16;100287.19;;;-0.11;100.00
57600;BME280;43426;43.594;24.334;2024-01-15T08:06:42;100259.03;;;0.11;100.00
57600;BME280;43426;43.594;24.334;2024-01-15T08:09:07;100293.28;;;0.49;100.00
57600;BME280;43426;43.594;24.334;2024-01-15T08:11:34;100294.31;;;0.82;98.62
57600;BME280;43426;43.594;24.334;2024-01-15T08:13:59;100304.94;;;0.82;97.66
57600;BME280;43426;43.594;24.334;2024-01-15T08:16:25;100297.53;;;0.75;98.77
57600;BME280;43426;43.594;24.334;2024-01-15T08:18:50;100290.94;;;0.80;98.97
57600;BME280;43426;43.594;24.334;2024-01-15T08:21:16;100295.75;;;0.87;98.18
57600;BME280;43426;43.594;24.334;2024-01-15T08:23:42;100298.91;;;1.03;98.48
57600;BME280;43426;43.594;24.334;2024-01-15T08:26:07;100294.44;;;1.15;97.60
57600;BME280;43426;43.594;24.334;2024-01-15T08:28:34;100287.56;;;1.24;98.65
57600;BME280;43426;43.594;24.334;2024-01-15T08:30:59;100268.31;;;1.31;98.33
57600;BME280;43426;43.594;24.334;2024-01-15T08:33:25;100285.94;;;1.55;99.09
57600;BME280;43426;43.594;24.334;2024-01-15T08:35:50;100269.00;;;1.56;99.46
57600;BME280;43426;43.594;24.334;2024-01-15T08:38:16;100280.81;;;1.75;99.16
57600;BME280;43426;43.594;24.334;2024-01-15T08:40:41;100256.75;;;1.76;98.45
57600;BME280;43426;43.594;24.334;2024-01-15T08:43:07;100255.53;;;1.80;98.33
57600;BME280;43426;43.594;24.334;2024-01-15T08:45:32;100238.34;;;1.84;98.25
57600;BME280;43426;43.594;24.334;2024-01-15T08:47:59;100255.91;;;2.08;98.49
57600;BME280;43426;43.594;24.334;2024-01-15T08:50:26;100250.84;;;2.26;97.98
57600;BME280;43426;43.594;24.334;2024-01-15T08:52:52;100224.59;;;2.21;95.81
57600;BME280;43426;43.594;24.334;2024-01-15T08:55:17;100229.75;;;2.34;93.82
57600;BME280;43426;43.594;24.334;2024-01-15T08:57:43;100214.16;;;2.51;93.01
57600;BME280;43426;43.594;24.334;2024-01-15T09:00:09;100231.09;;;2.81;92.55
57600;BME280;43426;43.594;24.334;2024-01-15T09:02:34;100192.97;;;2.80;91.83
57600;BME280;43426;43.594;24.334;2024-01-15T09:05:00;100210.19;;;3.17;92.42
57600;BME280;43426;43.594;24.334;2024-01-15T09:25:35;100165.06;;;5.70;78.37
57600;BME280;43426;43.594;24.334;2024-01-15T09:28:00;100168.66;;;5.97;78.06
57600;BME280;43426;43.594;24.334;2024-01-15T09:30:26;100171.59;;;6.30;76.63
57600;BME280;43426;43.594;24.334;2024-01-15T09:32:51;100171.78;;;6.37;74.23
57600;BME280;43426;43.594;24.334;2024-01-15T09:35:17;100166.31;;;6.46;74.90
57600;BME280;43426;43.594;24.334;2024-01-15T09:37:42;100140.75;;;6.52;73.99
57600;BME280;43426;43.594;24.334;2024-01-15T09:40:12;100150.03;;;6.66;73.56
57600;BME280;43426;43.594;24.334;2024-01-15T09:42:39;100145.81;;;6.63;71.33
57600;BME280;43426;43.594;24.334;2024-01-15T09:45:09;100135.06;;;6.55;69.07
57600;BME280;43426;43.594;24.334;2024-01-15T09:47:36;100132.69;;;6.52;69.57
57600;BME280;43426;43.594;24.334;2024-01-15T09:50:02;100133.19;;;6.56;71.01
57600;BME280;43426;43.594;24.334;2024-01-15T09:52:30;100119.69;;;6.65;71.73
57600;BME280;43426;43.594;24.334;2024-01-15T09:54:57;100103.63;;;6.74;69.08
57600;BME280;43426;43.594;24.334;2024-01-15T09:57:22;100097.69;;;6.96;69.52
57600;BME280;43426;43.594;24.334;2024-01-15T09:59:48;100082.81;;;7.43;68.66
57600;BME280;43426;43.594;24.334;2024-01-15T10:02:14;100097.91;;;8.02;66.98
57600;BME280;43426;43.594;24.334;2024-01-15T10:04:44;100089.44;;;8.30;62.82
57600;BME280;43426;43.594;24.334;2024-01-15T10:07:15;100068.59;;;8.32;62.38
57600;BME280;43426;43.594;24.334;2024-01-15T10:09:41;100067.38;;;8.43;63.53
57600;BME280;43426;43.594;24.334;2024-01-15T10:12:10;100089.34;;;8.71;63.23
57600;BME280;43426;43.594;24.334;2024-01-15T10:14:36;100081.56;;;8.76;62.72
57600;BME280;43426;43.594;24.334;2024-01-15T10:17:12;100062.81;;;8.60;59.24
57600;BME280;43426;43.594;24.334;2024-01-15T10:19:37;100076.41;;;8.58;59.99
57600;BME280;43426;43.594;24.334;2024-01-15T10:22:03;100051.06;;;8.44;60.72
57600;BME280;43426;43.594;24.334;2024-01-15T10:24:28;100067.06;;;8.46;61.21
57600;BME280;43426;43.594;24.334;2024-01-15T10:27:05;100075.47;;;8.34;59.76
57600;BME280;43426;43.594;24.334;2024-01-15T10:29:31;100052.41;;;8.00;58.73
57600;BME280;43426;43.594;24.334;2024-01-15T10:31:56;100063.66;;;7.71;60.51
57600;BME280;43426;43.594;24.334;2024-01-15T10:34:22;100061.50;;;7.75;61.70
57600;BME280;43426;43.594;24.334;2024-01-15T10:36:47;100057.47;;;7.87;62.25
57600;BME280;43426;43.594;24.334;2024-01-15T10:39:17;100057.47;;;7.87;61.52
57600;BME280;43426;43.594;24.334;2024-01-15T10:41:43;100029.59;;;7.80;61.83
57600;BME280;43426;43.594;24.334;2024-01-15T10:44:09;100028.94;;;7.70;61.95
57600;BME280;43426;43.594;24.334;2024-01-15T10:46:35;100032.97;;;7.74;63.16
57600;BME280;43426;43.594;24.334;2024-01-15T10:49:00;100014.88;;;7.59;64.32
57600;BME280;43426;43.594;24.334;2024-01-15T10:51:26;100020.56;;;7.64;63.68
57600;BME280;43426;43.594;24.334;2024-01-15T10:53:53;99979.81;;;7.36;64.14
57600;BME280;43426;43.594;24.334;2024-01-15T10:56:21;100034.19;;;7.55;63.47
57600;BME280;43426;43.594;24.334;2024-01-15T10:58:47;100025.63;;;7.43;63.73
57600;BME280;43426;43.594;24.334;2024-01-15T11:01:14;100018.72;;;7.24;64.84
57600;BME280;43426;43.594;24.334;2024-01-15T11:03:39;100008.16;;;7.14;66.11
57600;BME280;43426;43.594;24.334;2024-01-15T11:06:16;100000.78;;;7.08;66.95
57600;BME280;43426;43.594;24.334;2024-01-15T11:08:48;100010.38;;;7.19;66.77
57600;BME280;43426;43.594;24.334;2024-01-15T11:11:18;100017.56;;;7.18;66.43
57600;BME280;43426;43.594;24.334;2024-01-15T11:13:46;100018.91;;;7.22;66.51
57600;BME280;43426;43.594;24.334;2024-01-15T11:16:14;99990.72;;;7.10;66.28
57600;BME280;43426;43.594;24.334;2024-01-15T11:19:00;99996.94;;;7.19;67.23
57600;BME280;43426;43.594;24.334;2024-01-15T11:21:27;99968.25;;;7.27;67.11
57600;BME280;43426;43.594;24.334;2024-01-15T11:23:56;99986.84;;;7.54;67.70
57600;BME280;43426;43.594;24.334;2024-01-15T11:26:44;99967.53;;;7.58;67.25
57600;BME280;43426;43.594;24.334;2024-01-15T11:32:07;99942.78;;;7.88;64.94
57600;BME280;43426;43.594;24.334;2024-01-15T11:34:59;99970.97;;;8.40;63.71
57600;BME280;43426;43.594;24.334;2024-01-15T11:37:56;99971.63;;;8.73;62.98
57600;BME280;43426;43.594;24.334;2024-01-15T11:43:02;99924.84;;;8.19;60.69
57600;BME280;43426;43.594;24.334;2024-01-15T11:45:30;99931.72;;;8.22;61.30
57600;BME280;43426;43.594;24.334;2024-01-15T11:50:34;99942.16;;;8.25;61.82
57600;BME280;43426;43.594;24.334;2024-01-15T11:53:03;99965.59;;;8.40;59.68
57600;BME280;43426;43.594;24.334;2024-01-15T11:55:39;99945.41;;;8.04;61.19
57600;BME280;43426;43.594;24.334;2024-01-15T11:58:09;99932.38;;;7.93;61.97
57600;BME280;43426;43.594;24.334;2024-01-15T12:00:39;99950.50;;;7.99;61.87
57600;BME280;43426;43.594;24.334;2024-01-15T12:03:05;99929.00;;;7.99;63.41
57600;BME280;43426;43.594;24.334;2024-01-15T12:05:31;99945.84;;;8.24;62.48
57600;BME280;43426;43.594;24.334;2024-01-15T12:07:56;99911.78;;;8.16;62.50
57600;BME280;43426;43.594;24.334;2024-01-15T12:10:22;99916.16;;;8.17;61.14
57600;BME280;43426;43.594;24.334;2024-01-15T12:13:18;99931.22;;;8.27;61.95
57600;BME280;43426;43.594;24.334;2024-01-15T12:15:46;99914.75;;;7.90;61.58
57600;BME280;43426;43.594;24.334;2024-01-15T12:18:14;99918.53;;;7.73;63.95
57600;BME280;43426;43.594;24.334;2024-01-15T12:20:41;99915.72;;;7.49;63.81
57600;BME280;43426;43.594;24.334;2024-01-15T12:23:08;99928.53;;;7.23;65.33
57600;BME280;43426;43.594;24.334;2024-01-15T12:25:34;99921.66;;;7.04;67.67
57600;BME280;43426;43.594;24.334;2024-01-15T12:28:00;99915.97;;;6.90;69.66
57600;BME280;43426;43.594;24.334;2024-01-15T12:30:26;99928.19;;;6.85;71.01
57600;BME280;43426;43.594;24.334;2024-01-15T12:32:52;99930.72;;;6.94;71.63
57600;BME280;43426;43.594;24.334;2024-01-15T12:35:18;99925.69;;;6.99;71.75
57600;BME280;43426;43.594;24.334;2024-01-15T12:37:44;99922.13;;;6.82;71.74
57600;BME280;43426;43.594;24.334;2024-01-15T12:40:12;99918.81;;;6.72;72.74
57600;BME280;43426;43.594;24.334;2024-01-15T12:42:39;99924.81;;;6.82;73.16
57600;BME280;43426;43.594;24.334;2024-01-15T12:45:05;99898.84;;;6.67;71.97
57600;BME280;43426;43.594;24.334;2024-01-15T12:47:32;99927.63;;;6.40;72.82
57600;BME280;43426;43.594;24.334;2024-01-15T12:49:58;99916.53;;;6.18;74.22
57600;BME280;43426;43.594;24.334;2024-01-15T12:52:27;99904.97;;;6.18;74.54
57600;BME280;43426;43.594;24.334;2024-01-15T12:54:53;99914.06;;;5.90;75.68
57600;BME280;43426;43.594;24.334;2024-01-15T12:57:18;99908.50;;;5.84;76.53
57600;BME280;43426;43.594;24.334;2024-01-15T12:59:44;99912.38;;;5.89;76.66
57600;BME280;43426;43.594;24.334;2024-01-15T13:02:10;99932.22;;;5.78;77.52